createdAt,value
2023-05-09T00:00:19.602Z,26.97
2023-05-09T00:01:19.635Z,29.64
2023-05-09T00:02:19.673Z,29.01
2023-05-09T00:03:19.653Z,29.69
2023-05-09T00:04:19.684Z,28.62
2023-05-09T00:05:19.628Z,27.41
2023-05-09T00:06:19.753Z,29.01
2023-05-09T00:07:19.652Z,25.00
2023-05-09T00:08:19.672Z,31.09
2023-05-09T00:09:19.721Z,31.19
2023-05-09T00:10:19.691Z,28.28
2023-05-09T00:11:19.792Z,28.62
2023-05-09T00:12:19.696Z,30.75
2023-05-09T00:13:19.704Z,26.64
2023-05-09T00:14:19.699Z,28.56
2023-05-09T00:15:19.698Z,28.74
2023-05-09T00:16:19.727Z,26.47
2023-05-09T00:17:19.708Z,28.21
2023-05-09T00:18:19.715Z,27.92
2023-05-09T00:19:19.824Z,26.04
2023-05-09T00:20:19.732Z,28.61
2023-05-09T00:21:19.739Z,28.88
2023-05-09T00:22:19.737Z,27.34
2023-05-09T00:23:19.753Z,30.46
2023-05-09T00:24:19.775Z,27.98
2023-05-09T00:25:19.825Z,30.10
2023-05-09T00:26:19.887Z,31.65
2023-05-09T00:27:19.998Z,31.81
2023-05-09T00:28:19.956Z,31.03
2023-05-09T00:29:20.006Z,28.88
2023-05-09T00:30:20.038Z,29.19
2023-05-09T00:31:20.039Z,29.69
2023-05-09T00:32:20.116Z,30.23
2023-05-09T00:33:20.064Z,28.31
2023-05-09T00:34:20.082Z,31.62
2023-05-09T00:35:20.089Z,30.43
2023-05-09T00:36:20.109Z,29.12
2023-05-09T00:37:20.104Z,30.78
2023-05-09T00:38:20.111Z,29.24
2023-05-09T00:39:20.117Z,29.71
2023-05-09T00:40:20.138Z,27.44
2023-05-09T00:41:20.146Z,26.70
2023-05-09T00:42:20.132Z,25.69
2023-05-09T00:43:20.240Z,28.62
2023-05-09T00:44:20.183Z,29.13
2023-05-09T00:45:20.224Z,25.00
2023-05-09T00:46:20.340Z,29.72
2023-05-09T00:47:20.323Z,28.60
2023-05-09T00:48:20.361Z,29.08
2023-05-09T00:49:20.396Z,30.85
2023-05-09T00:50:20.438Z,30.87
2023-05-09T00:51:20.489Z,30.99
2023-05-09T00:52:20.540Z,27.39
2023-05-09T00:53:20.580Z,25.90
2023-05-09T00:54:20.617Z,30.15
2023-05-09T00:55:20.679Z,30.69
2023-05-09T00:56:20.717Z,26.61
2023-05-09T00:57:20.752Z,27.14
2023-05-09T00:58:20.803Z,26.96
2023-05-09T00:59:20.962Z,26.80
2023-05-09T01:00:20.894Z,31.16
2023-05-09T01:01:20.998Z,29.05
2023-05-09T01:02:21.036Z,26.31
2023-05-09T01:03:21.093Z,25.47
2023-05-09T01:04:21.090Z,30.94
2023-05-09T01:05:21.140Z,25.52
2023-05-09T01:06:21.189Z,28.38
2023-05-09T01:07:21.245Z,31.07
2023-05-09T01:08:21.283Z,28.86
2023-05-09T01:09:21.318Z,30.13
2023-05-09T01:10:21.364Z,29.11
2023-05-09T01:11:21.428Z,29.67
2023-05-09T01:12:21.465Z,30.36
2023-05-09T01:13:21.573Z,28.51
2023-05-09T01:14:21.533Z,29.56
2023-05-09T01:15:21.701Z,29.04
2023-05-09T01:16:21.737Z,29.49
2023-05-09T01:17:21.682Z,29.15
2023-05-09T01:18:21.782Z,29.01
2023-05-09T01:19:21.754Z,31.96
2023-05-09T01:20:21.821Z,29.70
2023-05-09T01:21:21.858Z,28.14
2023-05-09T01:22:21.899Z,29.63
2023-05-09T01:23:21.961Z,27.50
2023-05-09T01:24:22.001Z,29.74
2023-05-09T01:25:22.045Z,26.58
2023-05-09T01:26:22.106Z,29.75
2023-05-09T01:27:22.140Z,28.16
2023-05-09T01:28:22.188Z,30.82
2023-05-09T01:29:22.234Z,29.57
2023-05-09T01:30:22.282Z,28.68
2023-05-09T01:31:22.475Z,28.92
2023-05-09T01:32:22.407Z,27.92
2023-05-09T01:33:22.437Z,28.81
2023-05-09T01:34:22.496Z,28.56
2023-05-09T01:35:22.541Z,27.33
2023-05-09T01:36:22.565Z,27.65
2023-05-09T01:37:22.564Z,27.83
2023-05-09T01:38:22.567Z,29.02
2023-05-09T01:39:22.574Z,29.49
2023-05-09T01:40:22.606Z,29.73
2023-05-09T01:41:22.605Z,28.25
2023-05-09T01:42:22.609Z,27.63
2023-05-09T01:43:22.623Z,28.25
2023-05-09T01:44:22.627Z,25.82
2023-05-09T01:45:22.624Z,28.73
2023-05-09T01:46:22.699Z,29.00
2023-05-09T01:47:22.730Z,28.56
2023-05-09T01:48:22.657Z,27.10
2023-05-09T01:49:22.659Z,27.25
2023-05-09T01:50:22.709Z,29.59
2023-05-09T01:51:22.759Z,27.79
2023-05-09T01:52:22.798Z,29.34
2023-05-09T01:53:22.851Z,30.18
2023-05-09T01:54:22.906Z,30.48
2023-05-09T01:55:22.944Z,27.75
2023-05-09T01:56:23.013Z,31.11
2023-05-09T01:57:23.043Z,29.69
2023-05-09T01:58:23.092Z,25.92
2023-05-09T01:59:23.163Z,29.80
2023-05-09T02:00:23.188Z,25.72
2023-05-09T02:01:23.283Z,30.26
2023-05-09T02:02:23.316Z,29.13
2023-05-09T02:03:23.541Z,27.44
2023-05-09T02:04:23.393Z,28.27
2023-05-09T02:05:23.445Z,26.54
2023-05-09T02:06:23.496Z,28.42
2023-05-09T02:07:23.545Z,30.42
2023-05-09T02:08:23.604Z,29.98
2023-05-09T02:09:23.645Z,28.22
2023-05-09T02:10:23.690Z,27.55
2023-05-09T02:11:23.729Z,28.11
2023-05-09T02:12:23.806Z,30.33
2023-05-09T02:13:24.017Z,27.89
2023-05-09T02:14:23.892Z,30.04
2023-05-09T02:15:23.933Z,30.55
2023-05-09T02:16:24.024Z,29.85
2023-05-09T02:17:24.052Z,31.38
2023-05-09T02:18:24.070Z,30.99
2023-05-09T02:19:24.191Z,30.39
2023-05-09T02:20:24.152Z,30.02
2023-05-09T02:21:24.197Z,28.78
2023-05-09T02:22:24.275Z,27.77
2023-05-09T02:23:24.313Z,28.79
2023-05-09T02:24:24.376Z,26.97
2023-05-09T02:25:24.416Z,27.01
2023-05-09T02:26:24.473Z,27.05
2023-05-09T02:27:24.519Z,28.21
2023-05-09T02:28:24.562Z,30.04
2023-05-09T02:29:24.618Z,28.16
2023-05-09T02:30:24.670Z,28.14
2023-05-09T02:31:24.766Z,26.07
2023-05-09T02:32:24.811Z,27.16
2023-05-09T02:33:24.843Z,26.88
2023-05-09T02:34:24.878Z,28.30
2023-05-09T02:35:25.027Z,27.18
2023-05-09T02:36:24.988Z,26.12
2023-05-09T02:37:25.050Z,32.06
2023-05-09T02:38:25.052Z,32.15
2023-05-09T02:39:25.058Z,31.40
2023-05-09T02:40:25.057Z,32.91
2023-05-09T02:41:25.065Z,31.22
2023-05-09T02:42:25.068Z,32.64
2023-05-09T02:43:25.070Z,28.47
2023-05-09T02:44:25.082Z,27.67
2023-05-09T02:45:25.080Z,33.80
2023-05-09T02:46:25.114Z,30.39
2023-05-09T02:47:25.102Z,28.67
2023-05-09T02:48:25.093Z,31.04
2023-05-09T02:49:32.067Z,28.86
2023-05-09T02:50:26.116Z,29.00
2023-05-09T02:51:25.207Z,29.29
2023-05-09T02:52:25.135Z,26.82
2023-05-09T02:53:25.140Z,29.13
2023-05-09T02:54:25.146Z,27.25
2023-05-09T02:55:25.159Z,28.06
2023-05-09T02:56:25.165Z,29.62
2023-05-09T02:57:25.185Z,30.15
2023-05-09T02:58:25.200Z,28.18
2023-05-09T02:59:25.199Z,26.31
2023-05-09T03:00:25.211Z,25.00
2023-05-09T03:01:25.241Z,15.24
2023-05-09T03:02:25.269Z,0.00
2023-05-09T03:03:25.293Z,0.00
2023-05-09T03:04:25.240Z,0.00
2023-05-09T03:05:25.268Z,0.00
2023-05-09T03:06:25.258Z,0.00
2023-05-09T03:07:25.358Z,0.00
2023-05-09T03:08:25.279Z,0.00
2023-05-09T03:09:25.304Z,0.00
2023-05-09T03:10:25.307Z,0.00
2023-05-09T03:11:25.316Z,0.00
2023-05-09T03:12:25.346Z,0.00
2023-05-09T03:13:25.386Z,4.66
2023-05-09T03:14:25.373Z,24.42
2023-05-09T03:15:25.391Z,25.00
2023-05-09T03:16:25.469Z,25.00
2023-05-09T03:17:25.588Z,25.65
2023-05-09T03:18:25.633Z,25.00
2023-05-09T03:19:25.712Z,25.75
2023-05-09T03:20:25.794Z,26.10
2023-05-09T03:21:25.871Z,25.00
2023-05-09T03:22:25.917Z,25.00
2023-05-09T03:23:26.040Z,25.00
2023-05-09T03:24:25.972Z,25.00
2023-05-09T03:25:26.006Z,25.00
2023-05-09T03:26:26.022Z,25.68
2023-05-09T03:27:26.075Z,26.90
2023-05-09T03:28:26.091Z,27.72
2023-05-09T03:29:26.108Z,26.31
2023-05-09T03:30:26.136Z,25.00
2023-05-09T03:31:26.214Z,26.85
2023-05-09T03:32:26.216Z,26.12
2023-05-09T03:33:26.224Z,28.72
2023-05-09T03:34:26.245Z,28.53
2023-05-09T03:35:26.297Z,26.94
2023-05-09T03:36:26.337Z,24.76
2023-05-09T03:37:27.180Z,27.78
2023-05-09T03:38:26.379Z,25.99
2023-05-09T03:39:26.421Z,26.57
2023-05-09T03:40:26.465Z,26.71
2023-05-09T03:41:26.497Z,25.91
2023-05-09T03:42:26.538Z,28.95
2023-05-09T03:43:26.607Z,28.00
2023-05-09T03:44:26.613Z,29.98
2023-05-09T03:45:26.662Z,27.34
2023-05-09T03:46:26.803Z,26.87
2023-05-09T03:47:26.765Z,26.42
2023-05-09T03:48:26.805Z,32.76
2023-05-09T03:49:26.841Z,32.16
2023-05-09T03:50:26.885Z,30.82
2023-05-09T03:51:26.943Z,32.19
2023-05-09T03:52:26.993Z,30.58
2023-05-09T03:53:27.060Z,32.52
2023-05-09T03:54:27.078Z,30.48
2023-05-09T03:55:27.226Z,29.18
2023-05-09T03:56:27.171Z,27.76
2023-05-09T03:57:27.234Z,29.38
2023-05-09T03:58:27.276Z,25.48
2023-05-09T03:59:27.333Z,26.37
2023-05-09T04:00:27.375Z,28.04
2023-05-09T04:01:27.419Z,28.31
2023-05-09T04:02:27.581Z,27.55
2023-05-09T04:03:27.571Z,27.92
2023-05-09T04:04:27.603Z,29.16
2023-05-09T04:05:27.617Z,25.00
2023-05-09T04:06:27.665Z,29.89
2023-05-09T04:07:27.732Z,27.76
2023-05-09T04:08:27.769Z,29.47
2023-05-09T04:09:27.834Z,26.16
2023-05-09T04:10:27.878Z,26.73
2023-05-09T04:11:28.024Z,27.54
2023-05-09T04:12:28.014Z,28.98
2023-05-09T04:13:28.117Z,25.25
2023-05-09T04:14:28.092Z,28.21
2023-05-09T04:15:28.159Z,28.51
2023-05-09T04:16:28.227Z,25.69
2023-05-09T04:17:28.293Z,30.16
2023-05-09T04:18:28.319Z,30.56
2023-05-09T04:19:28.371Z,27.44
2023-05-09T04:20:28.423Z,34.62
2023-05-09T04:21:28.479Z,35.04
2023-05-09T04:22:28.533Z,37.10
2023-05-09T04:23:28.591Z,37.43
2023-05-09T04:24:28.642Z,40.07
2023-05-09T04:25:28.692Z,40.30
2023-05-09T04:26:28.774Z,45.01
2023-05-09T04:27:28.912Z,45.64
2023-05-09T04:28:28.856Z,50.77
2023-05-09T04:29:28.918Z,51.92
2023-05-09T04:30:28.977Z,56.32
2023-05-09T04:31:29.196Z,57.09
2023-05-09T04:32:29.120Z,59.69
2023-05-09T04:33:29.229Z,62.80
2023-05-09T04:34:29.234Z,68.17
2023-05-09T04:35:29.299Z,70.57
2023-05-09T04:36:29.354Z,71.18
2023-05-09T04:37:29.427Z,75.66
2023-05-09T04:38:29.485Z,75.63
2023-05-09T04:39:29.552Z,75.06
2023-05-09T04:40:29.621Z,80.41
2023-05-09T04:41:29.691Z,81.25
2023-05-09T04:42:29.697Z,81.38
2023-05-09T04:43:29.723Z,81.59
2023-05-09T04:44:29.757Z,82.50
2023-05-09T04:45:29.789Z,83.30
2023-05-09T04:46:29.850Z,84.45
2023-05-09T04:47:29.906Z,86.90
2023-05-09T04:48:29.861Z,87.12
2023-05-09T04:49:29.895Z,89.01
2023-05-09T04:50:29.919Z,86.86
2023-05-09T04:51:29.947Z,91.26
2023-05-09T04:52:29.981Z,92.62
2023-05-09T04:53:30.012Z,91.37
2023-05-09T04:54:30.027Z,89.23
2023-05-09T04:55:30.060Z,89.86
2023-05-09T04:56:30.081Z,91.55
2023-05-09T04:57:30.149Z,90.31
2023-05-09T04:58:30.220Z,88.75
2023-05-09T04:59:30.385Z,94.21
2023-05-09T05:00:30.367Z,90.93
2023-05-09T05:01:30.461Z,90.04
2023-05-09T05:02:30.526Z,91.12
2023-05-09T05:03:30.602Z,89.42
2023-05-09T05:04:30.708Z,88.53
2023-05-09T05:05:31.931Z,91.06
2023-05-09T05:06:30.820Z,90.77
2023-05-09T05:07:30.893Z,85.74
2023-05-09T05:08:30.963Z,84.38
2023-05-09T05:09:31.038Z,83.06
2023-05-09T05:10:31.110Z,82.88
2023-05-09T05:11:31.187Z,81.30
2023-05-09T05:12:31.261Z,77.38
2023-05-09T05:13:31.333Z,74.42
2023-05-09T05:14:31.447Z,72.10
2023-05-09T05:15:31.525Z,72.38
2023-05-09T05:16:31.514Z,73.07
2023-05-09T05:17:31.547Z,73.68
2023-05-09T05:18:31.545Z,71.39
2023-05-09T05:19:31.586Z,72.47
2023-05-09T05:20:31.602Z,73.07
2023-05-09T05:21:31.638Z,76.78
2023-05-09T05:22:32.789Z,76.34
2023-05-09T05:23:31.713Z,77.38
2023-05-09T05:24:31.749Z,77.61
2023-05-09T05:25:31.787Z,77.59
2023-05-09T05:26:31.830Z,75.74
2023-05-09T05:27:31.869Z,77.56
2023-05-09T05:28:32.832Z,77.45
2023-05-09T05:29:31.973Z,77.07
2023-05-09T05:30:34.178Z,77.66
2023-05-09T05:31:32.375Z,79.04
2023-05-09T05:32:32.233Z,80.88
2023-05-09T05:33:32.232Z,78.52
2023-05-09T05:34:32.235Z,83.09
2023-05-09T05:35:32.280Z,97.88
2023-05-09T05:36:32.318Z,114.28
2023-05-09T05:37:32.331Z,80.17
2023-05-09T05:38:32.367Z,80.84
2023-05-09T05:39:32.402Z,93.85
2023-05-09T05:40:32.433Z,109.21
2023-05-09T05:41:32.481Z,128.31
2023-05-09T05:42:32.507Z,162.24
2023-05-09T05:43:32.553Z,177.60
2023-05-09T05:44:32.567Z,193.57
2023-05-09T05:45:32.656Z,206.90
2023-05-09T05:46:32.619Z,213.49
2023-05-09T05:47:32.755Z,215.86
2023-05-09T05:48:32.660Z,223.96
2023-05-09T05:49:32.698Z,230.54
2023-05-09T05:50:32.708Z,234.22
2023-05-09T05:51:32.732Z,238.26
2023-05-09T05:52:32.745Z,180.39
2023-05-09T05:53:32.948Z,144.38
2023-05-09T05:54:32.804Z,87.78
2023-05-09T05:55:32.833Z,70.83
2023-05-09T05:56:32.870Z,70.97
2023-05-09T05:57:32.903Z,69.02
2023-05-09T05:58:32.926Z,57.05
2023-05-09T05:59:32.988Z,54.56
2023-05-09T06:00:33.008Z,69.06
2023-05-09T06:01:33.047Z,82.07
2023-05-09T06:02:33.147Z,72.43
2023-05-09T06:03:33.386Z,70.49
2023-05-09T06:04:33.192Z,74.39
2023-05-09T06:05:33.218Z,77.93
2023-05-09T06:06:33.262Z,73.70
2023-05-09T06:07:33.312Z,76.94
2023-05-09T06:08:33.399Z,65.24
2023-05-09T06:09:33.526Z,47.03
2023-05-09T06:10:33.604Z,27.02
2023-05-09T06:11:33.728Z,28.61
2023-05-09T06:12:33.821Z,28.79
2023-05-09T06:13:33.947Z,29.94
2023-05-09T06:14:34.049Z,36.09
2023-05-09T06:15:34.164Z,53.87
2023-05-09T06:16:34.319Z,42.88
2023-05-09T06:17:34.427Z,26.60
2023-05-09T06:18:34.666Z,24.13
2023-05-09T06:19:34.591Z,25.61
2023-05-09T06:20:34.697Z,25.00
2023-05-09T06:21:34.809Z,25.00
2023-05-09T06:22:34.842Z,25.23
2023-05-09T06:23:34.901Z,27.56
2023-05-09T06:24:36.134Z,31.34
2023-05-09T06:25:35.028Z,30.60
2023-05-09T06:26:35.050Z,25.57
2023-05-09T06:27:35.091Z,26.65
2023-05-09T06:28:35.182Z,24.99
2023-05-09T06:29:35.182Z,18.79
2023-05-09T06:30:35.246Z,19.50
2023-05-09T06:31:35.322Z,25.00
2023-05-09T06:32:35.407Z,25.78
2023-05-09T06:33:35.384Z,26.62
2023-05-09T06:34:35.411Z,25.00
2023-05-09T06:35:35.462Z,26.02
2023-05-09T06:36:35.625Z,29.12
2023-05-09T06:37:35.658Z,25.00
2023-05-09T06:38:35.721Z,25.03
2023-05-09T06:39:35.751Z,25.72
2023-05-09T06:40:35.922Z,32.99
2023-05-09T06:41:35.851Z,55.97
2023-05-09T06:42:35.891Z,96.33
2023-05-09T06:43:35.942Z,107.61
2023-05-09T06:44:35.981Z,92.07
2023-05-09T06:45:36.105Z,89.80
2023-05-09T06:46:36.114Z,57.64
2023-05-09T06:47:36.155Z,25.18
2023-05-09T06:48:36.177Z,26.61
2023-05-09T06:49:36.238Z,26.68
2023-05-09T06:50:36.410Z,26.15
2023-05-09T06:51:36.398Z,25.00
2023-05-09T06:52:36.483Z,33.13
2023-05-09T06:53:36.569Z,37.32
2023-05-09T06:54:36.656Z,28.23
2023-05-09T06:55:36.731Z,38.99
2023-05-09T06:56:36.823Z,44.20
2023-05-09T06:57:36.906Z,48.96
2023-05-09T06:58:37.008Z,54.03
2023-05-09T06:59:37.144Z,58.80
2023-05-09T07:00:37.195Z,57.16
2023-05-09T07:01:37.372Z,63.28
2023-05-09T07:02:37.452Z,52.06
2023-05-09T07:03:37.638Z,31.47
2023-05-09T07:04:37.737Z,25.00
2023-05-09T07:05:37.763Z,25.00
2023-05-09T07:06:37.960Z,34.13
2023-05-09T07:07:37.963Z,24.92
2023-05-09T07:08:38.061Z,25.00
2023-05-09T07:09:38.187Z,33.46
2023-05-09T07:10:38.277Z,37.10
2023-05-09T07:11:38.416Z,22.01
2023-05-09T07:12:38.526Z,26.34
2023-05-09T07:13:38.528Z,27.22
2023-05-09T07:14:38.573Z,35.17
2023-05-09T07:15:41.992Z,54.44
2023-05-09T07:16:38.682Z,29.38
2023-05-09T07:17:38.725Z,38.37
2023-05-09T07:18:38.744Z,50.82
2023-05-09T07:19:38.762Z,28.66
2023-05-09T07:20:38.806Z,36.06
2023-05-09T07:21:38.846Z,39.70
2023-05-09T07:22:39.025Z,38.84
2023-05-09T07:23:38.939Z,22.20
2023-05-09T07:24:38.984Z,43.40
2023-05-09T07:25:39.024Z,59.74
2023-05-09T07:26:39.062Z,56.80
2023-05-09T07:27:39.106Z,60.92
2023-05-09T07:28:39.157Z,57.59
2023-05-09T07:29:39.204Z,57.69
2023-05-09T07:30:39.257Z,73.53
2023-05-09T07:31:39.331Z,87.86
2023-05-09T07:32:39.376Z,89.56
2023-05-09T07:33:39.403Z,83.78
2023-05-09T07:34:39.478Z,76.42
2023-05-09T07:35:39.569Z,89.09
2023-05-09T07:36:39.733Z,127.54
2023-05-09T07:37:39.806Z,157.47
2023-05-09T07:38:39.904Z,179.13
2023-05-09T07:39:39.888Z,194.23
2023-05-09T07:40:39.957Z,220.66
2023-05-09T07:41:40.033Z,240.23
2023-05-09T07:42:40.096Z,237.69
2023-05-09T07:43:40.167Z,226.26
2023-05-09T07:44:40.247Z,182.47
2023-05-09T07:45:40.319Z,159.54
2023-05-09T07:46:40.376Z,158.03
2023-05-09T07:47:40.444Z,143.58
2023-05-09T07:48:40.483Z,164.71
2023-05-09T07:49:40.547Z,169.62
2023-05-09T07:50:40.639Z,202.15
2023-05-09T07:51:40.698Z,195.70
2023-05-09T07:52:40.756Z,171.64
2023-05-09T07:53:40.792Z,173.69
2023-05-09T07:54:40.945Z,195.85
2023-05-09T07:55:40.905Z,180.58
2023-05-09T07:56:40.958Z,176.63
2023-05-09T07:57:40.997Z,175.74
2023-05-09T07:58:41.042Z,144.15
2023-05-09T07:59:41.061Z,175.59
2023-05-09T08:00:41.099Z,179.38
2023-05-09T08:01:41.104Z,167.83
2023-05-09T08:02:41.246Z,168.95
2023-05-09T08:03:41.214Z,109.62
2023-05-09T08:04:41.638Z,31.18
2023-05-09T08:05:41.232Z,4.11
2023-05-09T08:06:41.255Z,20.91
2023-05-09T08:07:41.280Z,31.68
2023-05-09T08:08:41.305Z,27.06
2023-05-09T08:09:41.357Z,27.70
2023-05-09T08:10:41.510Z,27.41
2023-05-09T08:11:41.402Z,28.54
2023-05-09T08:12:41.491Z,29.26
2023-05-09T08:13:41.498Z,38.01
2023-05-09T08:14:41.503Z,57.57
2023-05-09T08:15:41.560Z,88.28
2023-05-09T08:16:41.558Z,84.41
2023-05-09T08:17:41.649Z,68.85
2023-05-09T08:18:41.624Z,79.76
2023-05-09T08:19:41.653Z,100.88
2023-05-09T08:20:41.689Z,110.23
2023-05-09T08:21:41.709Z,106.21
2023-05-09T08:22:41.745Z,114.18
2023-05-09T08:23:41.777Z,136.08
2023-05-09T08:24:41.808Z,136.87
2023-05-09T08:25:41.849Z,126.86
2023-05-09T08:26:42.198Z,127.60
2023-05-09T08:27:41.913Z,118.38
2023-05-09T08:28:41.950Z,129.61
2023-05-09T08:29:41.996Z,131.03
2023-05-09T08:30:42.005Z,114.47
2023-05-09T08:31:42.101Z,120.84
2023-05-09T08:32:42.093Z,104.74
2023-05-09T08:33:42.213Z,111.04
2023-05-09T08:34:42.132Z,115.53
2023-05-09T08:35:42.181Z,121.52
2023-05-09T08:36:42.173Z,100.35
2023-05-09T08:37:42.209Z,97.79
2023-05-09T08:38:42.223Z,101.19
2023-05-09T08:39:42.245Z,115.95
2023-05-09T08:40:42.264Z,82.37
2023-05-09T08:41:42.297Z,82.38
2023-05-09T08:42:42.414Z,75.22
2023-05-09T08:43:42.335Z,31.10
2023-05-09T08:44:42.367Z,21.92
2023-05-09T08:45:42.390Z,24.82
2023-05-09T08:46:42.481Z,34.74
2023-05-09T08:47:42.503Z,65.32
2023-05-09T08:48:42.467Z,102.52
2023-05-09T08:49:42.466Z,126.82
2023-05-09T08:50:42.511Z,139.12
2023-05-09T08:51:42.514Z,167.76
2023-05-09T08:52:42.539Z,202.66
2023-05-09T08:53:42.553Z,234.73
2023-05-09T08:54:42.577Z,251.95
2023-05-09T08:55:42.597Z,244.41
2023-05-09T08:56:42.612Z,232.53
2023-05-09T08:57:42.627Z,229.64
2023-05-09T08:58:42.739Z,213.28
2023-05-09T08:59:42.700Z,194.84
2023-05-09T09:00:42.686Z,192.62
2023-05-09T09:01:42.743Z,200.68
2023-05-09T09:02:42.790Z,208.10
2023-05-09T09:03:42.793Z,212.83
2023-05-09T09:04:42.892Z,216.01
2023-05-09T09:05:42.980Z,221.87
2023-05-09T09:06:43.007Z,232.53
2023-05-09T09:07:43.089Z,242.13
2023-05-09T09:08:43.182Z,231.26
2023-05-09T09:09:43.256Z,229.87
2023-05-09T09:10:43.384Z,219.68
2023-05-09T09:11:43.442Z,222.12
2023-05-09T09:12:43.533Z,222.85
2023-05-09T09:13:43.613Z,230.71
2023-05-09T09:14:43.848Z,220.12
2023-05-09T09:15:43.750Z,206.52
2023-05-09T09:16:43.848Z,198.27
2023-05-09T09:17:43.889Z,193.77
2023-05-09T09:18:43.975Z,192.88
2023-05-09T09:19:44.020Z,186.14
2023-05-09T09:20:44.085Z,189.84
2023-05-09T09:21:44.136Z,204.05
2023-05-09T09:22:44.195Z,212.79
2023-05-09T09:23:44.277Z,220.77
2023-05-09T09:24:44.380Z,231.46
2023-05-09T09:25:44.442Z,234.62
2023-05-09T09:26:44.607Z,235.30
2023-05-09T09:27:44.582Z,243.19
2023-05-09T09:28:44.694Z,241.90
2023-05-09T09:29:44.745Z,240.62
2023-05-09T09:30:44.947Z,251.45
2023-05-09T09:31:44.967Z,250.00
2023-05-09T09:32:45.077Z,250.00
2023-05-09T09:33:45.129Z,251.03
2023-05-09T09:34:45.146Z,251.33
2023-05-09T09:35:45.158Z,254.24
2023-05-09T09:36:45.183Z,261.96
2023-05-09T09:37:45.216Z,271.10
2023-05-09T09:38:45.228Z,286.00
2023-05-09T09:39:45.253Z,265.29
2023-05-09T09:40:45.269Z,261.11
2023-05-09T09:41:45.320Z,250.23
2023-05-09T09:42:45.313Z,246.61
2023-05-09T09:43:45.402Z,239.79
2023-05-09T09:44:45.477Z,240.29
2023-05-09T09:45:45.643Z,231.37
2023-05-09T09:46:45.798Z,238.01
2023-05-09T09:47:45.796Z,249.31
2023-05-09T09:48:45.848Z,247.06
2023-05-09T09:49:46.215Z,246.81
2023-05-09T09:50:45.996Z,249.54
2023-05-09T09:51:46.096Z,238.16
2023-05-09T09:52:46.174Z,231.64
2023-05-09T09:53:46.239Z,231.51
2023-05-09T09:54:46.329Z,235.82
2023-05-09T09:55:46.401Z,240.74
2023-05-09T09:56:46.450Z,236.39
2023-05-09T09:57:46.526Z,222.92
2023-05-09T09:58:46.583Z,207.75
2023-05-09T09:59:46.659Z,204.65
2023-05-09T10:00:46.732Z,194.08
2023-05-09T10:01:46.783Z,182.88
2023-05-09T10:02:46.985Z,188.46
2023-05-09T10:03:46.975Z,196.32
2023-05-09T10:04:46.973Z,204.70
2023-05-09T10:05:47.094Z,202.14
2023-05-09T10:06:47.118Z,184.91
2023-05-09T10:07:47.175Z,162.17
2023-05-09T10:08:47.258Z,152.30
2023-05-09T10:09:47.242Z,150.76
2023-05-09T10:10:47.255Z,142.92
2023-05-09T10:11:47.289Z,150.09
2023-05-09T10:12:47.349Z,139.53
2023-05-09T10:13:47.363Z,128.27
2023-05-09T10:14:47.328Z,120.03
2023-05-09T10:15:53.643Z,122.01
2023-05-09T10:16:48.475Z,122.09
2023-05-09T10:17:47.488Z,113.46
2023-05-09T10:18:47.571Z,122.90
2023-05-09T10:19:47.396Z,118.92
2023-05-09T10:20:47.402Z,130.11
2023-05-09T10:21:47.393Z,125.08
2023-05-09T10:22:47.410Z,123.69
2023-05-09T10:23:47.436Z,124.45
2023-05-09T10:24:47.447Z,135.21
2023-05-09T10:25:47.471Z,139.31
2023-05-09T10:26:47.456Z,140.48
2023-05-09T10:27:47.485Z,151.58
2023-05-09T10:28:47.520Z,172.13
2023-05-09T10:29:47.585Z,171.45
2023-05-09T10:30:47.651Z,187.77
2023-05-09T10:31:47.775Z,190.12
2023-05-09T10:32:47.852Z,186.39
2023-05-09T10:33:47.836Z,185.72
2023-05-09T10:34:47.994Z,186.19
2023-05-09T10:35:47.944Z,196.30
2023-05-09T10:36:48.005Z,192.33
2023-05-09T10:37:48.078Z,181.81
2023-05-09T10:38:48.112Z,180.90
2023-05-09T10:39:48.188Z,157.43
2023-05-09T10:40:48.215Z,136.90
2023-05-09T10:41:48.266Z,128.38
2023-05-09T10:42:48.388Z,130.28
2023-05-09T10:43:48.368Z,120.69
2023-05-09T10:44:48.422Z,85.93
2023-05-09T10:45:48.469Z,48.36
2023-05-09T10:46:48.585Z,22.51
2023-05-09T10:47:48.614Z,0.00
2023-05-09T10:48:48.610Z,9.99
2023-05-09T10:49:48.650Z,18.11
2023-05-09T10:50:48.778Z,22.84
2023-05-09T10:51:48.734Z,25.46
2023-05-09T10:52:48.788Z,24.14
2023-05-09T10:53:48.840Z,33.94
2023-05-09T10:54:48.919Z,35.83
2023-05-09T10:55:48.974Z,42.16
2023-05-09T10:56:49.060Z,47.13
2023-05-09T10:57:49.095Z,47.91
2023-05-09T10:58:49.161Z,47.94
2023-05-09T10:59:49.232Z,48.40
2023-05-09T11:00:49.292Z,54.34
2023-05-09T11:01:49.410Z,59.67
2023-05-09T11:02:49.524Z,56.97
2023-05-09T11:03:49.850Z,48.65
2023-05-09T11:04:49.517Z,19.14
2023-05-09T11:05:49.531Z,12.59
2023-05-09T11:06:49.780Z,18.34
2023-05-09T11:07:49.563Z,24.36
2023-05-09T11:08:49.580Z,35.79
2023-05-09T11:09:49.606Z,19.09
2023-05-09T11:10:49.622Z,33.87
2023-05-09T11:11:49.619Z,46.70
2023-05-09T11:12:49.653Z,49.30
2023-05-09T11:13:49.645Z,55.22
2023-05-09T11:14:49.665Z,59.06
2023-05-09T11:15:49.678Z,40.45
2023-05-09T11:16:49.711Z,38.83
2023-05-09T11:17:49.746Z,44.12
2023-05-09T11:18:49.767Z,48.42
2023-05-09T11:19:49.743Z,2.08
2023-05-09T11:20:49.722Z,10.68
2023-05-09T11:21:49.747Z,32.21
2023-05-09T11:22:49.842Z,39.19
2023-05-09T11:23:49.819Z,40.94
2023-05-09T11:24:49.888Z,61.38
2023-05-09T11:25:49.955Z,81.83
2023-05-09T11:26:50.012Z,103.46
2023-05-09T11:27:50.089Z,122.68
2023-05-09T11:28:50.141Z,136.50
2023-05-09T11:29:50.200Z,140.63
2023-05-09T11:30:50.262Z,140.69
2023-05-09T11:31:50.362Z,140.47
2023-05-09T11:32:50.432Z,127.54
2023-05-09T11:33:50.443Z,113.39
2023-05-09T11:34:50.515Z,111.05
2023-05-09T11:35:50.610Z,110.15
2023-05-09T11:36:50.620Z,110.50
2023-05-09T11:37:50.694Z,108.97
2023-05-09T11:38:50.829Z,112.18
2023-05-09T11:39:50.801Z,119.33
2023-05-09T11:40:50.850Z,119.10
2023-05-09T11:41:50.898Z,117.47
2023-05-09T11:42:50.954Z,120.80
2023-05-09T11:43:51.011Z,123.57
2023-05-09T11:44:51.076Z,124.77
2023-05-09T11:45:51.189Z,141.55
2023-05-09T11:46:51.174Z,145.02
2023-05-09T11:47:51.275Z,149.41
2023-05-09T11:48:51.285Z,147.09
2023-05-09T11:49:51.356Z,147.20
2023-05-09T11:50:51.399Z,160.45
2023-05-09T11:51:51.478Z,159.43
2023-05-09T11:52:51.537Z,154.14
2023-05-09T11:53:51.518Z,154.17
2023-05-09T11:54:51.619Z,154.35
2023-05-09T11:55:51.532Z,158.81
2023-05-09T11:56:51.577Z,163.28
2023-05-09T11:57:51.546Z,165.81
2023-05-09T11:58:51.562Z,163.36
2023-05-09T11:59:51.641Z,164.27
2023-05-09T12:00:51.577Z,161.94
2023-05-09T12:01:51.604Z,159.45
2023-05-09T12:02:51.782Z,159.24
2023-05-09T12:03:51.637Z,160.18
2023-05-09T12:04:51.625Z,159.23
2023-05-09T12:05:51.628Z,160.02
2023-05-09T12:06:51.640Z,160.21
2023-05-09T12:07:51.660Z,159.09
2023-05-09T12:08:51.666Z,159.41
2023-05-09T12:09:51.694Z,159.41
2023-05-09T12:10:51.785Z,159.77
2023-05-09T12:11:51.715Z,169.82
2023-05-09T12:12:51.793Z,164.61
2023-05-09T12:13:51.731Z,162.98
2023-05-09T12:14:51.947Z,165.66
2023-05-09T12:15:51.831Z,163.67
2023-05-09T12:16:51.782Z,162.03
2023-05-09T12:17:52.215Z,162.76
2023-05-09T12:18:51.827Z,163.31
2023-05-09T12:19:51.807Z,163.41
2023-05-09T12:20:51.846Z,163.75
2023-05-09T12:21:51.834Z,164.09
2023-05-09T12:22:51.840Z,163.41
2023-05-09T12:23:53.467Z,163.62
2023-05-09T12:24:51.884Z,164.67
2023-05-09T12:25:51.859Z,168.23
2023-05-09T12:26:51.949Z,170.14
2023-05-09T12:27:51.875Z,178.82
2023-05-09T12:28:51.887Z,179.04
2023-05-09T12:29:53.618Z,180.54
2023-05-09T12:30:51.889Z,188.36
2023-05-09T12:31:51.924Z,197.68
2023-05-09T12:32:51.931Z,215.90
2023-05-09T12:33:51.899Z,224.17
2023-05-09T12:34:51.903Z,229.09
2023-05-09T12:35:52.885Z,232.71
2023-05-09T12:36:51.998Z,232.88
2023-05-09T12:37:52.019Z,233.68
2023-05-09T12:38:52.037Z,235.48
2023-05-09T12:39:52.073Z,240.19
2023-05-09T12:40:52.080Z,247.41
2023-05-09T12:42:52.251Z,250.01
2023-05-09T12:43:52.176Z,249.27
2023-05-09T12:44:52.243Z,250.02
2023-05-09T12:45:52.222Z,250.00